Impacts METAR Board
IDs:

KBWI - Baltimore-Washington, MD, US

Updated at: 2200 UTC 19 Jun 2018
Potential Impact None Slight Moderate High
Time 19/10Z 19/11Z 19/12Z 19/13Z 19/14Z 19/15Z 19/16Z 19/17Z 19/18Z 19/19Z 19/20Z 19/21Z 19/22Z
Temp78 79 79 84 88 89 88 86 84 84 81 80 80
Dewpt71 72 73 73 74 74 74 73 74 72 71 73 74
Altim29.83 29.83 29.84 29.83 29.83 29.82 29.83 29.82 29.82 29.83 29.83 29.82 29.82
VIS6 6 10 10 10 10 10 10 10 10 10 10 10
CIG160 160 160 250 -- -- 75 85 90 85 55 130 160
CoverBKNBKNBKNBKNSCTSCTBKNBKNBKNBKNBKNBKNBKN
FltCatVFRVFRVFRVFRVFRVFRVFRVFRVFRVFRVFRVFRVFR
WXHZHZ------------TS---RA----
WDir220023027029031033033020360340340300
WSpd5 0 3 7 10 9 9 6 8 6 6 7 6
WGst-- -- -- -- -- -- -- -- -- -- -- -- --
Raw hourly METARs
KBWI 190954Z 22005KT 6SM HZ BKN160 BKN250 26/22 A2983 RMK AO2 SLP100 T02560217
KBWI 191054Z 00000KT 6SM HZ FEW100 BKN160 BKN250 26/22 A2983 RMK AO2 SLP101 T02610222
KBWI 191154Z 23003KT 10SM FEW100 BKN160 BKN250 26/23 A2984 RMK AO2 SLP104 T02610228 10272 20250 51009
KBWI 191254Z 27007KT 10SM SCT160 BKN250 29/23 A2983 RMK AO2 SLP100 T02890228
KBWI 191354Z 29010KT 10SM FEW044 SCT160 SCT250 31/23 A2983 RMK AO2 SLP100 T03110233
KBWI 191454Z 31009KT 10SM SCT041 SCT160 SCT250 32/23 A2982 RMK AO2 SLP098 TCU DSNT E T03170233 56007
KBWI 191554Z 33009KT 10SM SCT041TCU BKN075 BKN160 BKN250 31/23 A2983 RMK AO2 SLP099 TCU NW-E-S T03110233
KBWI 191654Z 33006KT 10SM SCT040TCU BKN085 BKN110 BKN160 30/23 A2982 RMK AO2 SLP097 VIRGA SE TCU ALQDS T03000228
KBWI 191754Z 02008KT 10SM TS FEW013 SCT036CB BKN090 BKN160 29/23 A2982 RMK AO2 LTG DSNT SW AND W TSB34 SLP098 OCNL LTGICCG S-SW TS S-SW MOV SE VCSH S-SW T02890233 10322 20261 50000
KBWI 191854Z 36006KT 10SM FEW032 SCT060 BKN085 BKN160 29/22 A2983 RMK AO2 TSE04 SLP099 CB DSNT S-W MOV SE T02890222
KBWI 191954Z 34006KT 10SM -RA FEW034 BKN055 BKN085 BKN160 27/22 A2983 RMK AO2 RAB47 SLP098 P0000 T02720217
KBWI 192054Z 34007KT 10SM FEW041 SCT055 BKN130 BKN170 27/23 A2982 RMK AO2 RAE49 SLP096 VCSH NE-SE P0001 60001 T02670228 58002
KBWI 192154Z 30006KT 10SM FEW034 FEW055 SCT130 BKN160 BKN250 27/23 A2982 RMK AO2 SLP095 T02670233



Page loaded:  22:06 UTC  |   03:06 PM Pacific  |   04:06 PM Mountain  |   05:06 PM Central  |   06:06 PM Eastern

 

ADVISORIES

FORECASTS

FORECASTS

OBSERVATIONS

USER TOOLS

ABOUT US